Time;durP1;ratioP1;P1;durP2;ratioP2;P2;SDS_P1;SDS_P2;PMS_P1;PMS_P2;Temp;Humidity;BMP_temperature;BMP_pressure;BME280_temperature;BME280_humidity;BME280_pressure;Samples;Min_cycle;Max_cycle;Signal;HPM_P1;HPM_P2
2022/01/09 00:00:50;;;;;;;20.43;4.90;;;7.10;99.90;;;;;;5177087;27;20212;-81
2022/01/09 00:03:58;;;;;;;17.97;3.63;;;7.10;99.90;;;;;;5176033;27;20173;-81
2022/01/09 00:06:32;;;;;;;16.03;4.57;;;7.10;99.90;;;;;;5168163;27;20272;-81
2022/01/09 00:09:18;;;;;;;14.27;4.00;;;7.20;99.90;;;;;;5156536;28;20158;-81
2022/01/09 00:11:47;;;;;;;20.27;5.10;;;7.30;99.90;;;;;;5137677;28;20233;-80
2022/01/09 00:14:39;;;;;;;16.33;5.20;;;7.20;99.90;;;;;;5155103;27;20182;-84
2022/01/09 00:17:28;;;;;;;13.67;4.03;;;7.40;99.90;;;;;;5138556;28;20166;-80
2022/01/09 00:20:47;;;;;;;20.70;4.50;;;7.30;99.90;;;;;;5157000;28;20174;-81
2022/01/09 00:23:34;;;;;;;18.13;4.70;;;7.40;99.90;;;;;;5155328;28;20165;-82
2022/01/09 00:26:25;;;;;;;16.97;4.57;;;7.50;99.90;;;;;;5154769;28;20186;-86
2022/01/09 00:29:18;;;;;;;18.30;4.13;;;7.60;99.90;;;;;;5148894;28;20214;-96
2022/01/09 00:31:48;;;;;;;23.77;5.00;;;7.50;99.90;;;;;;5134408;28;20198;-82
2022/01/09 00:34:36;;;;;;;20.33;4.70;;;7.50;99.90;;;;;;5139762;28;20165;-80
2022/01/09 00:37:30;;;;;;;19.23;5.53;;;7.40;99.90;;;;;;5173883;27;20166;-81
2022/01/09 00:40:03;;;;;;;18.53;4.80;;;7.40;99.90;;;;;;5162523;27;20201;-80
2022/01/09 00:49:16;;;;;;;19.87;5.37;;;7.40;99.90;;;;;;5176325;27;20169;-82
2022/01/09 00:51:54;;;;;;;16.17;4.10;;;7.40;99.90;;;;;;5180446;27;20165;-91
2022/01/09 00:55:10;;;;;;;22.17;5.30;;;7.40;99.90;;;;;;5181245;27;20145;-84
2022/01/09 01:00:59;;;;;;;22.70;4.93;;;7.40;99.90;;;;;;5182356;27;20210;-79
2022/01/09 01:10:22;;;;;;;21.40;4.83;;;7.60;99.90;;;;;;5181956;27;20199;-80
2022/01/09 01:13:35;;;;;;;17.57;4.77;;;7.60;99.50;;;;;;5180984;27;20165;-81
2022/01/09 01:20:02;;;;;;;17.50;4.07;;;7.70;97.90;;;;;;5183307;27;20215;-80
2022/01/09 01:22:40;;;;;;;13.87;3.83;;;7.70;97.70;;;;;;5165707;27;20177;-82
2022/01/09 01:26:00;;;;;;;14.83;3.60;;;7.60;97.30;;;;;;5182250;27;20192;-81
2022/01/09 01:28:55;;;;;;;16.53;4.20;;;7.50;98.00;;;;;;5179773;27;20177;-81
2022/01/09 01:31:33;;;;;;;17.57;3.30;;;7.50;97.70;;;;;;5160682;27;20177;-90
2022/01/09 01:34:44;;;;;;;11.30;3.70;;;7.40;97.50;;;;;;5177684;27;20173;-82
2022/01/09 01:37:21;;;;;;;17.10;3.80;;;7.40;98.00;;;;;;5162513;27;20153;-82
2022/01/09 01:40:29;;;;;;;19.53;4.17;;;7.40;98.20;;;;;;5182729;27;20219;-81
2022/01/09 01:43:16;;;;;;;14.37;3.53;;;7.40;98.50;;;;;;5182286;27;20198;-82
2022/01/09 01:45:46;;;;;;;16.30;3.47;;;7.50;98.90;;;;;;5164455;27;20221;-81
2022/01/09 01:48:12;;;;;;;20.70;5.97;;;7.50;98.70;;;;;;5164721;27;20242;-80
2022/01/09 01:50:43;;;;;;;21.83;5.07;;;7.50;99.00;;;;;;5163788;27;20149;-80
2022/01/09 01:56:31;;;;;;;12.50;3.00;;;7.50;99.00;;;;;;5178378;27;20203;-84
2022/01/09 02:02:39;;;;;;;19.20;5.20;;;7.50;98.00;;;;;;5179345;27;20188;-93
2022/01/09 02:05:11;;;;;;;15.47;4.50;;;7.60;98.00;;;;;;5178143;27;20162;-83
2022/01/09 02:08:06;;;;;;;11.23;4.00;;;7.40;97.70;;;;;;5180875;27;20217;-85
2022/01/09 02:10:31;;;;;;;13.17;4.03;;;7.50;96.50;;;;;;5179337;27;20177;-81
2022/01/09 02:13:16;;;;;;;11.00;3.30;;;7.50;95.70;;;;;;5176360;27;20173;-81
2022/01/09 02:15:47;;;;;;;16.63;4.37;;;7.50;95.10;;;;;;5159352;27;20181;-81
2022/01/09 02:18:19;;;;;;;15.93;4.03;;;7.40;94.20;;;;;;5177638;27;20237;-86
2022/01/09 02:21:10;;;;;;;14.33;3.83;;;7.40;94.60;;;;;;5159215;27;20216;-83
2022/01/09 02:24:00;;;;;;;12.93;2.93;;;7.40;94.80;;;;;;5174731;27;20169;-82
2022/01/09 02:26:26;;;;;;;12.50;3.40;;;7.40;94.10;;;;;;5161967;27;20150;-83
2022/01/09 02:29:11;;;;;;;10.23;3.23;;;7.40;93.70;;;;;;5163318;27;20197;-82
2022/01/09 02:31:59;;;;;;;12.23;3.27;;;7.50;93.40;;;;;;5179946;27;20173;-82
2022/01/09 02:34:41;;;;;;;13.73;3.17;;;7.40;92.90;;;;;;5178521;27;20244;-80
2022/01/09 02:37:37;;;;;;;15.07;3.77;;;7.30;92.90;;;;;;5161446;27;20161;-81
2022/01/09 02:41:16;;;;;;;14.80;3.27;;;7.40;93.40;;;;;;5178951;27;20208;-80
2022/01/09 02:47:09;;;;;;;16.10;3.77;;;7.30;92.80;;;;;;5179773;27;20164;-81
2022/01/09 02:50:37;;;;;;;14.23;2.73;;;7.30;93.00;;;;;;5181210;27;20157;-81
2022/01/09 02:56:54;;;;;;;11.17;3.47;;;7.30;93.10;;;;;;5177202;27;20149;-81
2022/01/09 03:02:43;;;;;;;14.90;3.93;;;7.30;92.20;;;;;;5178866;27;20226;-82
2022/01/09 03:08:31;;;;;;;12.43;3.57;;;7.30;93.00;;;;;;5181021;27;20169;-80
2022/01/09 03:11:03;;;;;;;13.57;3.53;;;7.40;92.90;;;;;;5161433;27;20189;-82
2022/01/09 03:14:06;;;;;;;13.00;3.50;;;7.30;92.70;;;;;;5178051;27;20167;-81
2022/01/09 03:17:15;;;;;;;10.23;3.13;;;7.40;93.10;;;;;;5178912;27;20224;-80
2022/01/09 03:20:24;;;;;;;13.80;3.60;;;7.30;92.90;;;;;;5161126;27;20180;-82
2022/01/09 03:23:38;;;;;;;12.30;2.93;;;7.40;92.90;;;;;;5177533;27;20241;-81
2022/01/09 03:26:09;;;;;;;15.60;4.30;;;7.30;93.10;;;;;;5161048;27;20172;-79
2022/01/09 03:29:21;;;;;;;13.37;3.83;;;7.30;93.20;;;;;;5160673;27;20160;-80
2022/01/09 03:32:14;;;;;;;16.73;3.60;;;7.20;93.20;;;;;;5160299;27;20174;-81
2022/01/09 03:38:48;;;;;;;14.53;2.90;;;7.10;93.50;;;;;;5178693;27;20195;-81
2022/01/09 03:41:15;;;;;;;12.93;3.50;;;7.10;93.30;;;;;;5157299;27;20261;-81
2022/01/09 03:47:05;;;;;;;15.37;3.37;;;6.90;94.20;;;;;;5176409;27;20165;-82
2022/01/09 03:49:50;;;;;;;11.57;2.73;;;7.00;94.50;;;;;;5159193;27;20233;-81
2022/01/09 03:53:07;;;;;;;16.20;3.90;;;6.90;94.70;;;;;;5178628;27;20130;-80
2022/01/09 03:56:23;;;;;;;13.03;3.30;;;6.90;95.50;;;;;;5176123;27;20172;-80
2022/01/09 03:59:03;;;;;;;10.63;2.50;;;6.90;95.50;;;;;;5157964;27;20173;-79
2022/01/09 04:01:57;;;;;;;11.53;2.90;;;6.90;95.30;;;;;;5177351;27;20188;-80
2022/01/09 04:04:35;;;;;;;10.27;2.60;;;6.90;95.50;;;;;;5176801;27;20162;-82
2022/01/09 04:10:29;;;;;;;10.63;3.07;;;6.80;95.20;;;;;;5175915;27;20165;-87
2022/01/09 04:13:16;;;;;;;14.10;2.63;;;6.80;95.50;;;;;;5159745;27;20175;-81
2022/01/09 04:16:07;;;;;;;12.90;2.20;;;6.80;95.70;;;;;;5159936;27;20190;-84
2022/01/09 04:18:36;;;;;;;10.00;2.57;;;6.80;95.60;;;;;;5159971;27;20165;-83
2022/01/09 04:21:34;;;;;;;11.60;3.00;;;6.70;94.80;;;;;;5177111;27;20212;-83
2022/01/09 04:24:29;;;;;;;11.77;2.67;;;6.70;95.70;;;;;;5162662;27;20172;-81
2022/01/09 04:27:27;;;;;;;12.33;3.30;;;6.70;96.10;;;;;;5161161;27;20176;-81
2022/01/09 04:29:56;;;;;;;11.87;2.57;;;6.70;96.60;;;;;;5138605;27;20178;-80
2022/01/09 04:32:56;;;;;;;13.67;2.80;;;6.70;97.30;;;;;;5156905;27;20203;-80
2022/01/09 04:38:44;;;;;;;11.07;3.20;;;6.40;97.60;;;;;;5180493;27;20149;-80
2022/01/09 04:41:26;;;;;;;10.70;2.63;;;6.60;97.70;;;;;;5182029;27;20209;-79
2022/01/09 04:43:52;;;;;;;12.93;2.60;;;6.50;97.90;;;;;;5165648;27;20170;-80
2022/01/09 04:46:38;;;;;;;11.43;3.03;;;6.50;97.80;;;;;;5166227;27;20175;-79
2022/01/09 04:52:37;;;;;;;14.90;3.60;;;6.50;98.00;;;;;;5182096;27;20145;-80
2022/01/09 04:55:02;;;;;;;8.07;2.10;;;6.40;97.50;;;;;;5160969;27;20236;-82
2022/01/09 04:58:15;;;;;;;11.43;2.97;;;6.40;97.60;;;;;;5183910;27;20154;-81
2022/01/09 05:00:41;;;;;;;13.13;2.93;;;6.50;97.80;;;;;;5164649;27;20249;-80
2022/01/09 05:03:24;;;;;;;7.17;2.50;;;6.40;97.70;;;;;;5180276;27;20155;-80
2022/01/09 05:05:50;;;;;;;9.80;2.43;;;6.30;97.80;;;;;;5147257;27;20185;-80
2022/01/09 05:08:16;;;;;;;9.40;2.00;;;6.30;97.50;;;;;;5164373;27;20157;-80
2022/01/09 05:11:03;;;;;;;10.63;2.77;;;6.40;97.60;;;;;;5160814;27;20185;-83
2022/01/09 05:16:53;;;;;;;9.20;2.70;;;6.30;98.30;;;;;;5172398;27;20333;-85
2022/01/09 05:19:27;;;;;;;10.20;2.70;;;6.30;98.70;;;;;;5148314;27;20268;-85
2022/01/09 05:21:58;;;;;;;10.10;2.53;;;6.30;98.80;;;;;;5154458;27;20197;-82
2022/01/09 05:24:47;;;;;;;10.93;2.87;;;6.20;99.20;;;;;;5155346;27;20177;-82
2022/01/09 05:27:13;;;;;;;11.40;2.97;;;6.20;99.70;;;;;;5143390;27;20178;-88
2022/01/09 05:29:54;;;;;;;11.17;3.10;;;6.20;99.30;;;;;;5153742;27;20253;-87
2022/01/09 05:32:25;;;;;;;12.47;2.40;;;6.20;98.90;;;;;;5155635;27;20166;-83
2022/01/09 05:34:54;;;;;;;10.43;2.27;;;6.10;99.30;;;;;;5140340;27;20181;-88
2022/01/09 05:37:21;;;;;;;8.07;2.33;;;6.10;99.60;;;;;;5155341;27;20164;-81
2022/01/09 05:39:48;;;;;;;8.57;2.40;;;6.10;99.60;;;;;;5162154;27;20211;-81
2022/01/09 05:42:26;;;;;;;11.37;2.90;;;6.00;99.00;;;;;;5160857;27;20142;-90
2022/01/09 05:44:51;;;;;;;11.03;2.80;;;6.00;99.60;;;;;;5159028;27;20165;-83
2022/01/09 05:47:47;;;;;;;10.53;2.80;;;6.20;99.70;;;;;;5177404;27;20142;-80
2022/01/09 05:50:23;;;;;;;13.77;2.83;;;6.00;99.30;;;;;;5178337;27;20181;-79
2022/01/09 05:53:33;;;;;;;9.03;2.87;;;6.00;99.80;;;;;;5177392;27;20176;-80
2022/01/09 05:55:59;;;;;;;14.10;3.07;;;6.00;99.90;;;;;;5156777;27;20161;-80
2022/01/09 05:58:25;;;;;;;10.80;3.17;;;5.90;99.90;;;;;;5155149;27;20165;-80
2022/01/09 06:01:00;;;;;;;13.10;3.30;;;6.00;99.90;;;;;;5180235;27;20250;-79
2022/01/09 06:03:28;;;;;;;7.23;2.60;;;6.10;99.90;;;;;;5160718;27;20263;-80
2022/01/09 06:05:57;;;;;;;13.77;3.17;;;6.00;99.90;;;;;;5140707;27;20167;-80
2022/01/09 06:08:26;;;;;;;11.33;3.03;;;6.00;99.90;;;;;;5140850;27;20162;-83
2022/01/09 06:10:55;;;;;;;12.57;3.67;;;5.90;99.90;;;;;;5137524;27;20151;-80
2022/01/09 06:13:28;;;;;;;8.87;2.87;;;6.00;99.90;;;;;;5139140;27;20174;-80
2022/01/09 06:16:32;;;;;;;9.83;3.43;;;6.00;99.90;;;;;;5136082;27;20185;-90
2022/01/09 06:19:13;;;;;;;10.53;2.80;;;5.80;99.90;;;;;;5147543;27;20158;-95
2022/01/09 06:22:18;;;;;;;8.17;2.87;;;5.80;99.90;;;;;;5149239;27;20173;-89
2022/01/09 06:25:04;;;;;;;11.03;3.73;;;5.70;99.90;;;;;;5138210;27;20174;-96
2022/01/09 06:28:14;;;;;;;11.20;3.20;;;5.70;99.90;;;;;;5130917;27;20178;-96
2022/01/09 06:30:43;;;;;;;9.27;3.03;;;5.80;99.90;;;;;;5171844;27;20174;-89
2022/01/09 06:33:14;;;;;;;19.17;3.73;;;5.80;99.90;;;;;;5139462;27;20178;-81
2022/01/09 06:35:45;;;;;;;13.00;3.63;;;5.90;99.90;;;;;;5156926;27;20189;-81
2022/01/09 06:38:31;;;;;;;10.60;3.00;;;5.80;99.90;;;;;;5160048;27;20178;-81
2022/01/09 06:41:36;;;;;;;19.20;3.87;;;5.80;99.90;;;;;;5178905;27;20212;-81
2022/01/09 06:44:24;;;;;;;10.03;2.70;;;5.90;99.90;;;;;;5176264;27;20165;-87
2022/01/09 06:47:03;;;;;;;10.57;3.10;;;5.90;99.90;;;;;;5176613;27;20157;-81
2022/01/09 06:49:36;;;;;;;10.57;2.60;;;5.90;99.90;;;;;;5152692;27;20157;-90
2022/01/09 06:52:20;;;;;;;13.97;2.40;;;5.80;99.90;;;;;;5171673;27;20215;-80
2022/01/09 06:55:04;;;;;;;9.30;2.53;;;5.90;99.90;;;;;;5159599;27;20181;-80
2022/01/09 06:57:32;;;;;;;13.80;3.20;;;5.80;99.90;;;;;;5158179;27;20173;-80
2022/01/09 07:00:39;;;;;;;8.30;2.57;;;5.80;99.90;;;;;;5173684;27;20233;-95
2022/01/09 07:03:10;;;;;;;10.23;2.57;;;5.80;99.90;;;;;;5175623;27;20138;-82
2022/01/09 07:05:59;;;;;;;9.17;2.57;;;5.90;99.90;;;;;;5162677;27;20169;-80
2022/01/09 07:11:50;;;;;;;10.00;2.10;;;5.70;99.90;;;;;;5145395;27;20187;-95
2022/01/09 07:14:23;;;;;;;9.83;2.60;;;5.60;99.90;;;;;;5130233;27;20174;-95
2022/01/09 07:16:50;;;;;;;8.67;2.33;;;5.70;99.90;;;;;;5156912;27;20170;-81
2022/01/09 07:19:23;;;;;;;11.80;3.53;;;5.90;99.90;;;;;;5142548;27;20181;-85
2022/01/09 07:21:48;;;;;;;11.27;2.70;;;5.80;99.90;;;;;;5156280;27;20170;-81
2022/01/09 07:24:17;;;;;;;9.30;2.57;;;5.90;99.90;;;;;;5136656;27;20177;-80
2022/01/09 07:26:44;;;;;;;10.63;2.60;;;5.90;99.90;;;;;;5156261;27;20184;-80
2022/01/09 07:29:13;;;;;;;7.63;2.30;;;5.90;99.90;;;;;;5140241;27;20162;-81
2022/01/09 07:31:55;;;;;;;12.00;2.87;;;5.90;99.90;;;;;;5139589;27;20158;-80
2022/01/09 07:34:22;;;;;;;12.03;2.50;;;5.90;99.90;;;;;;5155669;27;20206;-83
2022/01/09 07:40:39;;;;;;;11.10;2.37;;;5.90;99.90;;;;;;5174928;27;20204;-86
2022/01/09 07:43:22;;;;;;;11.90;2.80;;;5.90;99.90;;;;;;5153619;27;20174;-91
2022/01/09 07:46:31;;;;;;;7.67;2.37;;;5.80;99.90;;;;;;5151242;27;20174;-86
2022/01/09 07:48:57;;;;;;;12.37;2.93;;;5.90;99.90;;;;;;5154625;27;20168;-81
2022/01/09 07:51:38;;;;;;;13.97;3.90;;;5.90;99.90;;;;;;5178553;27;20169;-79
2022/01/09 07:54:08;;;;;;;14.40;3.37;;;5.90;99.90;;;;;;5159773;27;20157;-82
2022/01/09 07:56:37;;;;;;;11.43;2.77;;;5.90;99.90;;;;;;5177440;27;20154;-80
2022/01/09 08:02:44;;;;;;;10.60;2.53;;;5.90;99.90;;;;;;5182459;27;20149;-82
2022/01/09 08:05:45;;;;;;;14.30;3.47;;;5.90;99.90;;;;;;5163211;27;20161;-81
2022/01/09 08:09:01;;;;;;;11.47;3.10;;;5.90;99.90;;;;;;5158894;27;20175;-82
2022/01/09 08:15:01;;;;;;;13.87;3.33;;;5.90;99.90;;;;;;5163842;27;20177;-80
2022/01/09 08:17:32;;;;;;;13.77;2.70;;;5.90;99.80;;;;;;5152180;27;20214;-85
2022/01/09 08:27:26;;;;;;;14.50;3.33;;;5.80;99.90;;;;;;5159637;27;20161;-84
2022/01/09 08:33:17;;;;;;;13.17;3.10;;;5.90;99.90;;;;;;5153829;27;20188;-87
2022/01/09 08:36:14;;;;;;;11.23;2.67;;;6.00;99.70;;;;;;5149317;27;20190;-87
2022/01/09 08:38:48;;;;;;;16.70;3.77;;;6.00;99.30;;;;;;5147631;27;20225;-82
2022/01/09 08:41:14;;;;;;;15.53;3.53;;;5.90;99.30;;;;;;5159820;27;20202;-82
2022/01/09 08:43:43;;;;;;;11.77;3.57;;;6.00;99.60;;;;;;5126105;27;20165;-82
2022/01/09 08:46:09;;;;;;;15.67;3.00;;;6.10;99.20;;;;;;5159489;27;20229;-81
2022/01/09 08:48:43;;;;;;;14.57;3.67;;;6.20;98.80;;;;;;5157619;27;20166;-93
2022/01/09 08:54:31;;;;;;;13.60;4.23;;;6.10;97.80;;;;;;5150439;27;20242;-86
2022/01/09 08:57:24;;;;;;;8.13;2.40;;;6.10;97.70;;;;;;5152544;27;20154;-84
2022/01/09 08:59:55;;;;;;;11.23;2.60;;;6.00;98.10;;;;;;5143243;27;20201;-81
2022/01/09 09:02:42;;;;;;;12.10;3.03;;;6.00;98.30;;;;;;5165954;27;20161;-86
2022/01/09 09:05:14;;;;;;;14.83;3.30;;;6.20;98.10;;;;;;5144379;27;20197;-84
2022/01/09 09:08:05;;;;;;;11.50;2.90;;;6.10;97.90;;;;;;5160970;27;20158;-90
2022/01/09 09:10:37;;;;;;;17.77;3.90;;;6.10;98.00;;;;;;5135285;27;20162;-82
2022/01/09 09:13:24;;;;;;;15.03;3.93;;;6.10;97.80;;;;;;5160681;27;20233;-84
2022/01/09 09:16:29;;;;;;;12.63;3.43;;;6.20;97.50;;;;;;5157706;27;20183;-81
2022/01/09 09:18:58;;;;;;;12.93;3.53;;;6.30;97.90;;;;;;5157574;27;20166;-83
2022/01/09 09:21:46;;;;;;;13.47;3.17;;;6.20;97.90;;;;;;5164441;27;20214;-80
2022/01/09 09:24:18;;;;;;;13.80;3.50;;;6.20;98.00;;;;;;5163174;27;20217;-81
2022/01/09 09:30:10;;;;;;;9.80;3.23;;;6.30;97.30;;;;;;5168743;27;20605;-94
2022/01/09 09:32:38;;;;;;;10.33;3.63;;;6.30;96.40;;;;;;5171349;27;20248;-92
2022/01/09 09:35:07;;;;;;;13.37;3.37;;;6.50;95.30;;;;;;5154777;27;20165;-89
2022/01/09 09:37:41;;;;;;;16.17;3.60;;;6.50;95.90;;;;;;5129698;27;20263;-87
2022/01/09 09:40:10;;;;;;;11.93;3.77;;;6.50;95.50;;;;;;5164243;27;20557;-82
2022/01/09 09:46:13;;;;;;;9.87;3.00;;;6.70;95.50;;;;;;5179618;27;20187;-80
2022/01/09 09:48:56;;;;;;;13.73;3.23;;;6.80;94.70;;;;;;5156271;27;20166;-82
2022/01/09 09:51:29;;;;;;;10.70;3.00;;;6.80;93.80;;;;;;5165161;27;20177;-90
2022/01/09 09:54:25;;;;;;;13.27;3.37;;;6.70;92.80;;;;;;5139871;27;20142;-92
2022/01/09 09:57:04;;;;;;;14.90;3.87;;;6.70;93.00;;;;;;5154661;27;20225;-80
2022/01/09 10:03:07;;;;;;;11.10;3.27;;;6.70;94.10;;;;;;5159540;27;20177;-79
2022/01/09 10:06:35;;;;;;;14.43;3.37;;;6.80;94.30;;;;;;5159671;27;20242;-81
2022/01/09 10:09:32;;;;;;;11.53;3.10;;;6.60;93.40;;;;;;5159439;27;20157;-82
2022/01/09 10:12:00;;;;;;;11.50;3.40;;;6.70;94.50;;;;;;5141034;27;20283;-81
2022/01/09 10:17:52;;;;;;;12.57;3.33;;;6.80;93.80;;;;;;5159682;27;20227;-80
2022/01/09 10:20:33;;;;;;;15.80;3.80;;;6.80;91.90;;;;;;5156658;27;20255;-82
2022/01/09 10:22:59;;;;;;;11.97;3.57;;;6.80;92.40;;;;;;5140900;27;20170;-90
2022/01/09 10:25:39;;;;;;;11.37;3.33;;;7.00;93.00;;;;;;5130082;27;20174;-92
2022/01/09 10:28:06;;;;;;;12.87;3.60;;;6.90;93.30;;;;;;5140982;27;20204;-92
2022/01/09 10:34:16;;;;;;;14.67;3.17;;;7.00;90.70;;;;;;5178371;27;20179;-87
2022/01/09 10:36:49;;;;;;;13.10;3.17;;;7.10;91.50;;;;;;5147102;27;20181;-82
2022/01/09 10:39:19;;;;;;;11.20;3.30;;;7.00;90.00;;;;;;5171024;27;20197;-81
2022/01/09 10:42:07;;;;;;;13.10;2.87;;;7.10;91.30;;;;;;5168576;27;20177;-88
2022/01/09 10:45:10;;;;;;;13.03;3.70;;;7.10;90.90;;;;;;5154171;27;20240;-84
2022/01/09 10:47:39;;;;;;;8.27;2.90;;;7.20;90.30;;;;;;5158434;27;20162;-82
2022/01/09 10:50:10;;;;;;;10.83;2.87;;;7.30;90.00;;;;;;5139307;27;20197;-82
2022/01/09 10:56:20;;;;;;;10.80;3.10;;;7.30;86.10;;;;;;5177683;27;20197;-84
2022/01/09 10:58:57;;;;;;;11.80;3.40;;;7.40;87.30;;;;;;5180912;27;20146;-84
2022/01/09 11:01:27;;;;;;;10.20;3.27;;;7.30;88.60;;;;;;5180078;27;20260;-84
2022/01/09 11:03:55;;;;;;;13.10;3.63;;;7.30;84.90;;;;;;5179713;27;20244;-82
2022/01/09 11:06:40;;;;;;;13.77;3.73;;;7.40;88.00;;;;;;5179013;27;20177;-81
2022/01/09 11:09:39;;;;;;;9.87;3.20;;;7.40;84.20;;;;;;5144376;27;20195;-81
2022/01/09 11:12:19;;;;;;;11.73;3.00;;;7.50;86.40;;;;;;5161956;27;20165;-82
2022/01/09 11:14:52;;;;;;;10.90;3.50;;;7.50;84.60;;;;;;5141601;27;20179;-82
2022/01/09 11:17:35;;;;;;;13.80;3.40;;;7.70;84.30;;;;;;5139407;27;20170;-80
2022/01/09 11:20:28;;;;;;;9.13;2.57;;;7.60;85.10;;;;;;5136537;27;20205;-85
2022/01/09 11:23:03;;;;;;;14.43;3.37;;;7.60;83.70;;;;;;5155047;27;20227;-82
2022/01/09 11:29:11;;;;;;;10.57;2.90;;;7.80;82.90;;;;;;5153048;27;20161;-89
2022/01/09 11:32:21;;;;;;;11.87;3.53;;;7.90;83.20;;;;;;5129286;27;20190;-91
2022/01/09 11:35:17;;;;;;;10.50;3.30;;;7.90;77.50;;;;;;5129355;27;20175;-93
2022/01/09 11:38:20;;;;;;;14.50;3.60;;;7.80;76.70;;;;;;5129458;27;20260;-87
2022/01/09 11:40:48;;;;;;;14.30;3.57;;;7.70;75.10;;;;;;5146619;27;20209;-88
2022/01/09 11:43:17;;;;;;;16.30;4.57;;;7.80;77.80;;;;;;5157215;27;20154;-84
2022/01/09 11:45:58;;;;;;;10.70;3.00;;;7.90;76.80;;;;;;5132576;28;20166;-89
2022/01/09 11:48:51;;;;;;;13.20;2.83;;;8.00;75.30;;;;;;5142211;28;20193;-92
2022/01/09 11:51:25;;;;;;;9.80;3.10;;;8.00;73.90;;;;;;5124994;28;20565;-88
2022/01/09 11:54:16;;;;;;;14.93;3.23;;;7.90;72.00;;;;;;5119510;27;20194;-83
2022/01/09 11:57:09;;;;;;;13.10;3.40;;;8.00;71.00;;;;;;5156986;27;20163;-85
2022/01/09 12:00:24;;;;;;;11.90;3.30;;;8.00;71.70;;;;;;5157600;28;20174;-82
2022/01/09 12:02:52;;;;;;;15.03;3.33;;;8.00;69.70;;;;;;5140388;28;20261;-80
2022/01/09 12:09:07;;;;;;;14.47;3.67;;;8.20;72.10;;;;;;5154581;27;20186;-89
2022/01/09 12:12:05;;;;;;;14.17;3.00;;;8.30;70.20;;;;;;5112675;28;20565;-89
2022/01/09 12:15:02;;;;;;;12.40;3.10;;;8.40;71.30;;;;;;5146592;28;20147;-87
2022/01/09 12:17:41;;;;;;;10.13;3.13;;;8.50;66.80;;;;;;5126875;28;20177;-85
2022/01/09 12:20:14;;;;;;;9.27;3.23;;;8.10;69.70;;;;;;5126197;28;20205;-90
2022/01/09 12:23:01;;;;;;;10.47;3.07;;;8.30;70.90;;;;;;5125457;28;20618;-92
2022/01/09 12:25:28;;;;;;;11.90;3.17;;;8.20;71.40;;;;;;5126241;28;20229;-91
2022/01/09 12:28:03;;;;;;;10.40;3.40;;;8.30;72.00;;;;;;5124489;28;20166;-89
2022/01/09 12:30:33;;;;;;;14.97;3.63;;;8.30;68.10;;;;;;5123166;28;20182;-92
2022/01/09 12:33:18;;;;;;;18.17;4.30;;;8.30;68.40;;;;;;5124823;28;20170;-93
2022/01/09 12:35:54;;;;;;;13.40;3.60;;;8.10;67.50;;;;;;5135784;28;20155;-82
2022/01/09 12:38:22;;;;;;;13.40;2.93;;;8.10;67.40;;;;;;5136225;28;20245;-84
2022/01/09 12:40:57;;;;;;;10.37;2.90;;;8.10;64.60;;;;;;5137503;28;20236;-80
2022/01/09 12:46:46;;;;;;;9.97;2.80;;;8.20;67.10;;;;;;5159224;27;20158;-82
2022/01/09 12:52:34;;;;;;;13.67;4.13;;;8.30;65.50;;;;;;5145683;27;20180;-92
2022/01/09 12:55:10;;;;;;;9.50;2.73;;;8.30;63.70;;;;;;5124721;27;20171;-89
2022/01/09 12:57:58;;;;;;;12.23;3.30;;;8.40;59.30;;;;;;5146021;27;20187;-92
2022/01/09 13:00:26;;;;;;;11.77;3.77;;;8.30;57.00;;;;;;5142086;27;20182;-84
2022/01/09 13:03:00;;;;;;;16.37;4.77;;;8.20;60.70;;;;;;5160701;27;20197;-82
2022/01/09 13:05:31;;;;;;;11.47;3.43;;;8.30;65.40;;;;;;5134903;27;20213;-93
2022/01/09 13:07:59;;;;;;;11.57;4.43;;;8.40;60.00;;;;;;5145822;27;20246;-93
2022/01/09 13:10:34;;;;;;;12.80;3.87;;;8.40;60.50;;;;;;5145239;27;20188;-91
2022/01/09 13:13:08;;;;;;;12.10;3.13;;;8.30;64.80;;;;;;5110562;27;20208;-86
2022/01/09 13:15:36;;;;;;;13.37;3.83;;;8.40;62.60;;;;;;5143893;27;20147;-90
2022/01/09 13:18:04;;;;;;;16.07;3.57;;;8.50;60.60;;;;;;5141746;27;20196;-82
2022/01/09 13:21:14;;;;;;;10.67;2.83;;;8.50;58.00;;;;;;5133597;27;20205;-92
2022/01/09 13:24:14;;;;;;;15.57;4.13;;;8.40;59.90;;;;;;5148444;27;20146;-91
2022/01/09 13:26:54;;;;;;;11.53;2.80;;;8.40;58.40;;;;;;5158055;27;20185;-85
2022/01/09 13:29:25;;;;;;;11.17;4.47;;;8.40;59.80;;;;;;5140998;27;20188;-82
2022/01/09 13:31:59;;;;;;;9.07;2.87;;;8.50;55.60;;;;;;5150074;27;20190;-88
2022/01/09 13:34:42;;;;;;;10.87;2.87;;;8.30;56.90;;;;;;5128493;27;20264;-92
2022/01/09 13:37:13;;;;;;;11.23;3.30;;;8.10;59.20;;;;;;5132642;27;20163;-89
2022/01/09 13:39:42;;;;;;;9.03;3.10;;;8.00;59.30;;;;;;5122132;27;20225;-86
2022/01/09 13:42:20;;;;;;;13.77;2.97;;;7.90;64.00;;;;;;5138869;27;20154;-81
2022/01/09 13:45:02;;;;;;;9.80;3.37;;;8.00;62.00;;;;;;5147077;27;20166;-91
2022/01/09 13:47:44;;;;;;;11.77;3.20;;;8.00;59.80;;;;;;5133651;27;20170;-89
2022/01/09 13:50:14;;;;;;;11.87;3.83;;;8.00;59.00;;;;;;5153454;27;20179;-83
2022/01/09 13:52:41;;;;;;;11.47;3.57;;;8.10;62.20;;;;;;5136990;27;20562;-94
2022/01/09 13:55:21;;;;;;;11.83;4.13;;;8.20;61.40;;;;;;5127095;27;20701;-92
2022/01/09 13:58:10;;;;;;;11.73;3.00;;;8.30;63.20;;;;;;5127519;27;20208;-93
2022/01/09 14:00:42;;;;;;;12.63;3.10;;;8.40;59.10;;;;;;5131568;27;20194;-82
2022/01/09 14:03:10;;;;;;;14.63;3.90;;;8.60;54.40;;;;;;5146088;27;20214;-85
2022/01/09 14:05:47;;;;;;;8.97;2.93;;;8.70;53.20;;;;;;5129186;27;20189;-92
2022/01/09 14:08:14;;;;;;;12.70;3.70;;;8.60;50.00;;;;;;5147487;27;20151;-83
2022/01/09 14:10:43;;;;;;;15.20;3.63;;;8.60;55.20;;;;;;5147984;27;20261;-86
2022/01/09 14:13:12;;;;;;;12.20;3.33;;;8.70;55.30;;;;;;5148687;27;20611;-88
2022/01/09 14:15:38;;;;;;;13.63;3.50;;;8.70;53.00;;;;;;5129476;27;20641;-92
2022/01/09 14:18:24;;;;;;;10.53;3.23;;;8.80;50.50;;;;;;5156459;27;20154;-81
2022/01/09 14:21:24;;;;;;;12.97;4.30;;;8.80;49.50;;;;;;5127148;27;20261;-83
2022/01/09 14:23:52;;;;;;;12.40;3.77;;;8.80;47.20;;;;;;5160482;27;20161;-89
2022/01/09 14:26:22;;;;;;;10.90;3.53;;;8.70;51.00;;;;;;5141936;27;20159;-84
2022/01/09 14:28:52;;;;;;;9.53;3.47;;;8.60;46.60;;;;;;5142349;27;20166;-81
2022/01/09 14:31:24;;;;;;;13.57;4.03;;;8.40;48.60;;;;;;5159488;27;20194;-82
2022/01/09 14:37:14;;;;;;;13.17;4.13;;;8.30;54.40;;;;;;5142575;27;20161;-92
2022/01/09 14:39:40;;;;;;;11.27;4.03;;;8.40;55.10;;;;;;5125251;27;20573;-86
2022/01/09 14:42:06;;;;;;;13.17;4.20;;;8.50;51.60;;;;;;5126440;27;20170;-92
2022/01/09 14:44:39;;;;;;;10.33;4.20;;;8.40;53.80;;;;;;5126000;27;20601;-91
2022/01/09 14:47:05;;;;;;;13.47;4.53;;;8.60;53.90;;;;;;5154791;27;20139;-83
2022/01/09 14:49:32;;;;;;;13.03;3.77;;;8.80;50.20;;;;;;5157834;27;20182;-85
2022/01/09 14:52:04;;;;;;;13.17;3.77;;;8.80;48.60;;;;;;5132598;27;20194;-89
2022/01/09 14:54:32;;;;;;;13.57;4.70;;;8.80;47.60;;;;;;5117799;27;20158;-84
2022/01/09 14:57:03;;;;;;;15.67;4.83;;;8.70;47.70;;;;;;5156506;27;20227;-81
2022/01/09 14:59:29;;;;;;;12.53;3.60;;;8.80;50.80;;;;;;5136442;27;20174;-81
2022/01/09 15:02:26;;;;;;;13.53;4.53;;;8.80;47.70;;;;;;5157264;27;20222;-81
2022/01/09 15:04:53;;;;;;;11.90;4.53;;;8.70;50.20;;;;;;5121632;27;20178;-82
2022/01/09 15:07:30;;;;;;;14.17;4.67;;;8.70;52.00;;;;;;5139336;27;20165;-83
2022/01/09 15:10:07;;;;;;;12.13;5.13;;;8.60;54.30;;;;;;5140930;27;20150;-81
2022/01/09 15:12:39;;;;;;;12.87;4.83;;;8.60;56.00;;;;;;5158804;27;20170;-83
2022/01/09 15:15:05;;;;;;;13.73;5.43;;;8.70;53.40;;;;;;5156863;27;20170;-86
2022/01/09 15:20:53;;;;;;;17.73;5.27;;;8.40;53.60;;;;;;5149274;27;20250;-82
2022/01/09 15:23:19;;;;;;;11.33;4.60;;;8.30;55.30;;;;;;5125010;27;20151;-81
2022/01/09 15:25:47;;;;;;;10.27;5.00;;;8.30;55.90;;;;;;5159439;27;20163;-83
2022/01/09 15:28:36;;;;;;;15.93;5.80;;;8.40;55.20;;;;;;5157220;27;20162;-84
2022/01/09 15:31:13;;;;;;;12.63;4.90;;;8.40;55.30;;;;;;5126044;28;20194;-93
2022/01/09 15:33:39;;;;;;;11.53;5.00;;;8.30;54.50;;;;;;5121632;28;20173;-90
2022/01/09 15:36:05;;;;;;;11.60;4.70;;;8.20;55.30;;;;;;5125546;27;20189;-93
2022/01/09 15:38:31;;;;;;;16.57;5.57;;;8.20;56.50;;;;;;5141239;27;20234;-93
2022/01/09 15:40:57;;;;;;;18.47;5.90;;;8.10;58.30;;;;;;5122569;27;20209;-91
2022/01/09 15:43:23;;;;;;;12.40;5.13;;;8.00;60.60;;;;;;5140328;27;20158;-89
2022/01/09 15:45:52;;;;;;;14.20;5.33;;;8.10;60.00;;;;;;5106144;28;20185;-85
2022/01/09 15:48:21;;;;;;;13.80;5.70;;;8.10;60.90;;;;;;5123449;28;20170;-92
2022/01/09 15:50:48;;;;;;;16.20;6.50;;;8.00;60.40;;;;;;5140984;28;20677;-87
2022/01/09 15:53:14;;;;;;;15.07;5.57;;;8.00;61.50;;;;;;5142855;28;20191;-84
2022/01/09 15:55:39;;;;;;;17.20;6.13;;;7.90;62.90;;;;;;5148127;28;20162;-85
2022/01/09 15:58:08;;;;;;;10.80;5.77;;;7.80;65.70;;;;;;5146282;28;20170;-85
2022/01/09 16:00:34;;;;;;;19.50;5.50;;;7.70;68.30;;;;;;5129193;28;20220;-82
2022/01/09 16:03:04;;;;;;;16.47;6.07;;;7.80;67.40;;;;;;5113411;28;20198;-87